createdAt,value
2018-05-23T00:00:58.454Z,8.80
2018-05-23T00:03:26.984Z,9.27
2018-05-23T00:05:55.773Z,8.60
2018-05-23T00:08:24.391Z,10.80
2018-05-23T00:10:53.380Z,9.80
2018-05-23T00:13:22.651Z,9.47
2018-05-23T00:15:52.974Z,8.70
2018-05-23T00:18:21.853Z,10.60
2018-05-23T00:20:53.536Z,10.43
2018-05-23T00:23:22.208Z,10.80
2018-05-23T00:25:50.791Z,11.50
2018-05-23T00:28:22.659Z,10.00
2018-05-23T00:30:51.949Z,10.77
2018-05-23T00:33:24.187Z,10.53
2018-05-23T00:35:53.909Z,10.43
2018-05-23T00:38:22.571Z,10.43
2018-05-23T00:40:51.161Z,9.30
2018-05-23T00:43:20.212Z,10.00
2018-05-23T00:45:49.035Z,8.93
2018-05-23T00:48:21.396Z,10.03
2018-05-23T00:50:49.934Z,10.20
2018-05-23T00:53:18.488Z,10.67
2018-05-23T00:55:47.187Z,9.27
2018-05-23T00:58:15.687Z,10.60
2018-05-23T01:00:44.581Z,10.50
2018-05-23T01:03:13.434Z,11.37
2018-05-23T01:05:42.028Z,10.10
2018-05-23T01:08:10.983Z,10.17
2018-05-23T01:10:39.748Z,10.83
2018-05-23T01:13:08.299Z,10.90
2018-05-23T01:15:37.215Z,10.80
2018-05-23T01:18:05.959Z,9.80
2018-05-23T01:23:15.230Z,11.67
2018-05-23T01:25:50.691Z,10.97
2018-05-23T01:28:19.269Z,13.40
2018-05-23T01:30:47.790Z,11.73
2018-05-23T01:33:16.289Z,11.50
2018-05-23T01:35:46.510Z,10.90
2018-05-23T01:38:14.996Z,10.20
2018-05-23T01:40:43.621Z,9.87
2018-05-23T01:43:12.514Z,10.13
2018-05-23T01:45:41.482Z,11.83
2018-05-23T01:48:10.107Z,11.37
2018-05-23T01:50:38.924Z,10.70
2018-05-23T01:53:07.877Z,11.17
2018-05-23T01:55:36.515Z,9.70
2018-05-23T01:58:10.271Z,12.10
2018-05-23T02:00:39.804Z,11.77
2018-05-23T02:03:08.307Z,12.23
2018-05-23T02:05:36.787Z,13.27
2018-05-23T02:08:06.487Z,14.03
2018-05-23T02:10:34.978Z,15.40
2018-05-23T02:13:03.907Z,16.07
2018-05-23T02:18:07.317Z,16.43
2018-05-23T02:20:35.814Z,14.83
2018-05-23T02:23:04.692Z,12.57
2018-05-23T02:25:33.278Z,14.40
2018-05-23T02:28:05.051Z,13.73
2018-05-23T02:30:34.044Z,13.70
2018-05-23T02:33:03.076Z,13.07
2018-05-23T02:35:42.690Z,14.20
2018-05-23T02:38:11.252Z,13.63
2018-05-23T02:40:40.953Z,13.83
2018-05-23T02:43:09.664Z,12.70
2018-05-23T02:45:43.642Z,12.40
2018-05-23T02:48:12.233Z,13.70
2018-05-23T02:50:41.439Z,13.37
2018-05-23T02:53:10.369Z,13.90
2018-05-23T02:55:38.941Z,14.03
2018-05-23T02:58:10.149Z,14.00
2018-05-23T03:00:38.902Z,13.77
2018-05-23T03:03:10.807Z,12.60
2018-05-23T03:05:40.226Z,12.47
2018-05-23T03:08:08.799Z,12.33
2018-05-23T03:10:37.913Z,12.53
2018-05-23T03:13:15.564Z,13.80
2018-05-23T03:15:44.412Z,13.10
2018-05-23T03:18:13.948Z,13.67
2018-05-23T03:20:43.456Z,12.30
2018-05-23T03:23:12.299Z,13.50
2018-05-23T03:25:41.047Z,13.80
2018-05-23T03:28:11.309Z,13.80
2018-05-23T03:30:42.538Z,15.67
2018-05-23T03:33:12.107Z,16.40
2018-05-23T03:35:41.643Z,14.90
2018-05-23T03:38:10.542Z,15.87
2018-05-23T03:40:43.333Z,15.27
2018-05-23T03:43:11.937Z,14.53
2018-05-23T03:45:42.704Z,14.03
2018-05-23T03:48:11.217Z,15.13
2018-05-23T03:50:39.918Z,15.80
2018-05-23T03:53:08.457Z,16.00
2018-05-23T03:55:36.999Z,15.50
2018-05-23T03:58:06.919Z,16.77
2018-05-23T04:02:48.903Z,17.60
2018-05-23T04:07:33.247Z,15.87
2018-05-23T04:10:03.080Z,17.03
2018-05-23T04:12:32.967Z,18.53
2018-05-23T04:15:01.761Z,17.20
2018-05-23T04:17:30.400Z,17.07
2018-05-23T04:19:59.386Z,17.97
2018-05-23T04:22:27.923Z,21.33
2018-05-23T04:24:56.546Z,23.20
2018-05-23T04:27:25.547Z,22.90
2018-05-23T04:29:54.139Z,23.60
2018-05-23T04:32:22.714Z,26.00
2018-05-23T04:34:51.643Z,26.80
2018-05-23T04:37:26.227Z,27.60
2018-05-23T04:39:55.260Z,27.73
2018-05-23T04:42:24.292Z,27.60
2018-05-23T04:44:53.315Z,29.60
2018-05-23T04:47:21.927Z,31.83
2018-05-23T04:50:05.915Z,29.80
2018-05-23T04:52:34.479Z,28.90
2018-05-23T04:55:03.754Z,29.57
2018-05-23T04:57:32.331Z,27.97
2018-05-23T05:00:06.458Z,29.90
2018-05-23T05:02:35.314Z,30.53
2018-05-23T05:05:07.819Z,28.13
2018-05-23T05:07:36.887Z,26.63
2018-05-23T05:10:09.358Z,25.23
2018-05-23T05:12:38.216Z,24.43
2018-05-23T05:15:07.313Z,25.73
2018-05-23T05:17:35.875Z,25.90
2018-05-23T05:20:05.582Z,29.60
2018-05-23T05:22:40.883Z,26.27
2018-05-23T05:25:09.456Z,28.67
2018-05-23T05:27:38.060Z,28.37
2018-05-23T05:30:07.459Z,26.23
2018-05-23T05:32:37.068Z,24.73
2018-05-23T05:35:05.667Z,25.93
2018-05-23T05:37:35.760Z,27.47
2018-05-23T05:40:05.754Z,26.07
2018-05-23T05:42:34.302Z,25.40
2018-05-23T05:45:03.710Z,23.53
2018-05-23T05:47:32.318Z,23.70
2018-05-23T05:50:01.329Z,24.30
2018-05-23T05:52:32.967Z,22.40
2018-05-23T05:55:01.802Z,21.20
2018-05-23T05:57:30.351Z,21.10
2018-05-23T05:59:59.232Z,20.07
2018-05-23T06:02:27.883Z,20.90
2018-05-23T06:04:56.619Z,18.60
2018-05-23T06:07:25.699Z,18.03
2018-05-23T06:09:58.197Z,17.13
2018-05-23T06:12:26.928Z,16.93
2018-05-23T06:15:00.728Z,17.07
2018-05-23T06:17:29.374Z,17.70
2018-05-23T06:19:58.315Z,17.13
2018-05-23T06:22:26.997Z,17.60
2018-05-23T06:24:55.746Z,17.27
2018-05-23T06:27:24.261Z,14.70
2018-05-23T06:29:53.772Z,15.47
2018-05-23T06:32:22.394Z,15.93
2018-05-23T06:35:02.683Z,16.00
2018-05-23T06:37:31.230Z,16.47
2018-05-23T06:40:05.947Z,16.60
2018-05-23T06:42:34.764Z,17.27
2018-05-23T06:45:03.967Z,16.17
2018-05-23T06:47:32.581Z,15.67
2018-05-23T06:50:07.443Z,15.20
2018-05-23T06:52:36.313Z,15.27
2018-05-23T06:55:11.058Z,13.07
2018-05-23T06:57:40.390Z,12.80
2018-05-23T07:00:08.989Z,13.13
2018-05-23T07:02:37.889Z,15.00
2018-05-23T07:05:07.330Z,13.87
2018-05-23T07:07:35.934Z,13.90
2018-05-23T07:10:06.792Z,14.23
2018-05-23T07:12:37.557Z,13.80
2018-05-23T07:15:06.170Z,15.07
2018-05-23T07:17:35.408Z,17.57
2018-05-23T07:20:06.361Z,16.00
2018-05-23T07:22:34.902Z,16.07
2018-05-23T07:27:37.622Z,20.20
2018-05-23T07:30:08.423Z,20.10
2018-05-23T07:32:36.993Z,17.57
2018-05-23T07:35:07.763Z,17.73
2018-05-23T07:37:36.819Z,15.87
2018-05-23T07:40:06.395Z,16.33
2018-05-23T07:42:34.979Z,16.00
2018-05-23T07:45:03.697Z,15.43
2018-05-23T07:47:32.250Z,14.80
2018-05-23T07:50:02.025Z,15.03
2018-05-23T07:52:30.603Z,13.47
2018-05-23T07:54:59.185Z,14.20
2018-05-23T07:57:28.119Z,16.30
2018-05-23T07:59:56.876Z,14.90
2018-05-23T08:02:25.535Z,16.60
2018-05-23T08:04:56.033Z,15.60
2018-05-23T08:07:24.601Z,15.63
2018-05-23T08:09:53.551Z,12.87
2018-05-23T08:12:22.758Z,16.10
2018-05-23T08:14:51.466Z,15.10
2018-05-23T08:17:20.058Z,14.83
2018-05-23T08:19:49.896Z,14.13
2018-05-23T08:22:18.453Z,12.97
2018-05-23T08:24:46.978Z,13.93
2018-05-23T08:27:15.859Z,13.80
2018-05-23T08:29:45.456Z,13.70
2018-05-23T08:32:14.108Z,13.50
2018-05-23T08:34:43.236Z,12.20
2018-05-23T08:37:11.815Z,13.60
2018-05-23T08:39:41.400Z,13.13
2018-05-23T08:42:11.502Z,13.47
2018-05-23T08:47:16.108Z,13.27
2018-05-23T08:49:44.881Z,12.67
2018-05-23T08:52:18.614Z,11.83
2018-05-23T08:54:48.750Z,12.67
2018-05-23T08:57:17.381Z,12.27
2018-05-23T08:59:46.204Z,14.50
2018-05-23T09:02:14.917Z,13.20
2018-05-23T09:04:44.138Z,13.63
2018-05-23T09:07:12.726Z,13.40
2018-05-23T09:09:42.055Z,13.20
2018-05-23T09:12:17.654Z,12.07
2018-05-23T09:14:47.299Z,11.10
2018-05-23T09:17:16.112Z,12.33
2018-05-23T09:19:45.093Z,12.27
2018-05-23T09:22:14.541Z,13.87
2018-05-23T09:24:44.367Z,12.33
2018-05-23T09:27:13.280Z,12.33
2018-05-23T09:29:43.973Z,11.43
2018-05-23T09:32:12.699Z,11.13
2018-05-23T09:34:41.386Z,12.10
2018-05-23T09:37:10.571Z,12.10
2018-05-23T09:39:39.179Z,12.20
2018-05-23T09:42:12.903Z,13.73
2018-05-23T09:44:41.828Z,14.70
2018-05-23T09:47:20.455Z,13.50
2018-05-23T09:49:57.562Z,14.77
2018-05-23T09:52:26.128Z,14.70
2018-05-23T09:54:55.029Z,16.47
2018-05-23T09:57:23.892Z,14.47
2018-05-23T09:59:52.646Z,13.17
2018-05-23T10:02:27.415Z,14.40
2018-05-23T10:05:06.073Z,14.40
2018-05-23T10:07:35.115Z,13.20
2018-05-23T10:10:07.099Z,14.90
2018-05-23T10:12:35.700Z,15.30
2018-05-23T10:15:06.527Z,14.37
2018-05-23T10:17:35.094Z,13.70
2018-05-23T10:20:10.052Z,15.00
2018-05-23T10:22:38.696Z,15.50
2018-05-23T10:25:07.293Z,14.70
2018-05-23T10:27:36.188Z,13.63
2018-05-23T10:30:06.467Z,12.33
2018-05-23T10:35:08.409Z,12.20
2018-05-23T10:37:42.958Z,12.20
2018-05-23T10:40:11.511Z,11.70
2018-05-23T10:42:40.110Z,13.60
2018-05-23T10:45:08.679Z,10.70
2018-05-23T10:47:37.518Z,11.07
2018-05-23T10:50:06.149Z,12.47
2018-05-23T10:52:34.682Z,12.00
2018-05-23T10:55:05.182Z,13.30
2018-05-23T10:57:33.864Z,12.50
2018-05-23T11:00:03.627Z,11.97
2018-05-23T11:02:32.512Z,11.93
2018-05-23T11:05:01.287Z,10.73
2018-05-23T11:07:30.164Z,12.60
2018-05-23T11:09:58.962Z,12.63
2018-05-23T11:12:27.493Z,13.47
2018-05-23T11:14:56.228Z,11.40
2018-05-23T11:17:31.681Z,13.00
2018-05-23T11:20:00.291Z,10.93
2018-05-23T11:22:29.214Z,10.50
2018-05-23T11:25:04.343Z,10.40
2018-05-23T11:27:32.970Z,11.40
2018-05-23T11:30:03.920Z,10.20
2018-05-23T11:32:36.194Z,9.13
2018-05-23T11:35:07.192Z,11.50
2018-05-23T11:37:35.843Z,9.03
2018-05-23T11:40:08.010Z,8.87
2018-05-23T11:42:42.881Z,10.17
2018-05-23T11:45:11.479Z,8.83
2018-05-23T11:47:40.591Z,10.27
2018-05-23T11:50:09.334Z,8.63
2018-05-23T11:52:37.931Z,9.67
2018-05-23T11:55:06.865Z,9.27
2018-05-23T11:57:41.638Z,9.90
2018-05-23T12:00:10.271Z,10.20
2018-05-23T12:02:39.575Z,9.13
2018-05-23T12:05:08.194Z,9.13
2018-05-23T12:07:36.757Z,9.63
2018-05-23T12:10:07.155Z,9.60
2018-05-23T12:12:38.058Z,10.17
2018-05-23T12:15:06.716Z,9.93
2018-05-23T12:17:35.305Z,11.67
2018-05-23T12:20:06.047Z,10.60
2018-05-23T12:22:34.717Z,10.37
2018-05-23T12:25:07.963Z,10.47
2018-05-23T12:27:36.995Z,9.10
2018-05-23T12:30:08.201Z,9.83
2018-05-23T12:32:36.815Z,10.50
2018-05-23T12:35:07.918Z,9.60
2018-05-23T12:37:36.463Z,9.97
2018-05-23T12:40:05.928Z,10.83
2018-05-23T12:42:37.640Z,10.20
2018-05-23T12:45:07.600Z,9.47
2018-05-23T12:47:36.326Z,11.67
2018-05-23T12:50:06.911Z,10.50
2018-05-23T12:52:35.684Z,11.70
2018-05-23T12:55:04.694Z,12.40
2018-05-23T12:57:37.471Z,12.23
2018-05-23T13:00:11.396Z,12.13
2018-05-23T13:02:41.668Z,12.50
2018-05-23T13:05:24.280Z,16.10
2018-05-23T13:07:58.159Z,10.43
2018-05-23T13:10:28.644Z,11.33
2018-05-23T13:12:59.868Z,9.67
2018-05-23T13:15:29.975Z,10.60
2018-05-23T13:18:04.945Z,12.23
2018-05-23T13:20:43.685Z,9.70
2018-05-23T13:23:14.464Z,10.27
2018-05-23T13:25:50.191Z,12.97
2018-05-23T13:28:19.003Z,12.57
2018-05-23T13:30:49.185Z,10.77
2018-05-23T13:33:17.754Z,12.93
2018-05-23T13:35:47.783Z,10.20
2018-05-23T13:38:16.715Z,8.77
2018-05-23T13:40:45.665Z,12.63
2018-05-23T13:43:21.750Z,9.90
2018-05-23T13:45:57.932Z,10.47
2018-05-23T13:48:26.771Z,9.10
2018-05-23T13:50:55.564Z,11.50
2018-05-23T13:53:25.555Z,11.50
2018-05-23T13:58:57.429Z,11.40
2018-05-23T14:01:26.902Z,9.93
2018-05-23T14:03:56.530Z,9.20
2018-05-23T14:06:25.826Z,7.40
2018-05-23T14:09:07.468Z,7.90
2018-05-23T14:11:36.463Z,6.93
2018-05-23T14:14:11.766Z,6.77
2018-05-23T14:16:40.415Z,9.07
2018-05-23T14:19:11.198Z,8.20
2018-05-23T14:21:39.840Z,9.43
2018-05-23T14:24:14.979Z,12.40
2018-05-23T14:26:44.047Z,10.97
2018-05-23T14:29:13.204Z,8.10
2018-05-23T14:31:42.034Z,8.20
2018-05-23T14:34:11.006Z,8.03
2018-05-23T14:36:39.995Z,8.10
2018-05-23T14:39:08.595Z,8.50
2018-05-23T14:41:37.476Z,10.10
2018-05-23T14:44:07.220Z,8.20
2018-05-23T14:46:35.471Z,7.67
2018-05-23T14:49:08.621Z,8.40
2018-05-23T14:51:37.809Z,9.10
2018-05-23T14:54:07.210Z,7.50
2018-05-23T14:56:35.735Z,6.97
2018-05-23T14:59:04.634Z,9.30
2018-05-23T15:01:33.215Z,7.87
2018-05-23T15:06:42.292Z,7.00
2018-05-23T15:09:10.847Z,7.23
2018-05-23T15:11:39.379Z,6.80
2018-05-23T15:14:08.231Z,7.30
2018-05-23T15:16:41.834Z,7.03
2018-05-23T15:19:10.461Z,7.73
2018-05-23T15:21:39.295Z,7.60
2018-05-23T15:24:07.868Z,6.70
2018-05-23T15:26:36.444Z,7.13
2018-05-23T15:29:05.571Z,7.90
2018-05-23T15:31:34.194Z,7.00
2018-05-23T15:34:04.701Z,7.00
2018-05-23T15:36:40.170Z,6.83
2018-05-23T15:39:08.743Z,8.23
2018-05-23T15:41:44.941Z,8.57
2018-05-23T15:44:14.037Z,10.47
2018-05-23T15:46:42.899Z,4.97
2018-05-23T15:49:11.600Z,4.77
2018-05-23T15:51:40.420Z,3.50
2018-05-23T15:54:09.263Z,3.70
2018-05-23T15:56:37.886Z,3.63
2018-05-23T15:59:09.513Z,3.20
2018-05-23T16:01:38.120Z,3.03
2018-05-23T16:04:12.612Z,4.00
2018-05-23T16:06:41.720Z,3.20
2018-05-23T16:09:11.200Z,2.83
2018-05-23T16:11:39.935Z,3.20
2018-05-23T16:14:08.654Z,3.20
2018-05-23T16:16:37.518Z,3.97
2018-05-23T16:19:13.409Z,3.63
2018-05-23T16:21:42.541Z,2.80
2018-05-23T16:24:11.545Z,3.57
2018-05-23T16:26:41.334Z,4.07
2018-05-23T16:29:10.274Z,3.20
2018-05-23T16:31:40.995Z,3.10
2018-05-23T16:34:10.056Z,3.33
2018-05-23T16:36:38.651Z,3.20
2018-05-23T16:39:07.249Z,3.93
2018-05-23T16:41:39.396Z,3.70
2018-05-23T16:44:11.580Z,3.87
2018-05-23T16:46:40.143Z,3.17
2018-05-23T16:49:09.624Z,4.73
2018-05-23T16:51:38.175Z,3.57
2018-05-23T16:54:07.117Z,3.33
2018-05-23T16:56:36.057Z,5.80
2018-05-23T16:59:05.164Z,5.67
2018-05-23T17:01:33.674Z,5.27
2018-05-23T17:04:05.472Z,4.87
2018-05-23T17:06:36.409Z,5.87
2018-05-23T17:09:06.392Z,5.00
2018-05-23T17:11:35.513Z,6.10
2018-05-23T17:14:05.717Z,5.57
2018-05-23T17:16:34.554Z,5.50
2018-05-23T17:19:03.714Z,5.37
2018-05-23T17:21:32.299Z,5.97
2018-05-23T17:24:07.305Z,5.67
2018-05-23T17:26:37.435Z,5.43
2018-05-23T17:29:06.519Z,4.73
2018-05-23T17:31:35.507Z,4.90
2018-05-23T17:34:06.881Z,4.50
2018-05-23T17:36:37.346Z,4.47
2018-05-23T17:39:06.594Z,5.20
2018-05-23T17:41:37.639Z,4.93
2018-05-23T17:44:08.454Z,4.43
2018-05-23T17:46:44.426Z,3.80
2018-05-23T17:49:37.352Z,4.03
2018-05-23T17:52:07.340Z,3.90
2018-05-23T17:54:37.441Z,4.73
2018-05-23T17:57:06.541Z,4.83
2018-05-23T17:59:40.879Z,5.73
2018-05-23T18:02:09.814Z,4.93
2018-05-23T18:04:38.820Z,4.80
2018-05-23T18:07:07.421Z,4.77
2018-05-23T18:09:36.285Z,5.03
2018-05-23T18:12:05.884Z,4.70
2018-05-23T18:14:34.529Z,5.07
2018-05-23T18:17:03.928Z,5.20
2018-05-23T18:19:35.500Z,4.80
2018-05-23T18:22:05.403Z,6.83
2018-05-23T18:24:38.200Z,6.17
2018-05-23T18:27:06.818Z,5.30
2018-05-23T18:29:35.426Z,5.87
2018-05-23T18:32:07.795Z,6.13
2018-05-23T18:34:36.367Z,5.60
2018-05-23T18:37:05.723Z,6.03
2018-05-23T18:39:37.386Z,6.20
2018-05-23T18:42:06.947Z,6.53
2018-05-23T18:44:35.619Z,5.57
2018-05-23T18:47:09.148Z,8.60
2018-05-23T18:49:37.812Z,6.93
2018-05-23T18:52:06.571Z,6.30
2018-05-23T18:57:10.803Z,6.87
2018-05-23T18:59:47.089Z,7.37
2018-05-23T19:02:15.968Z,6.90
2018-05-23T19:04:45.337Z,7.40
2018-05-23T19:07:14.229Z,8.53
2018-05-23T19:09:43.035Z,8.70
2018-05-23T19:12:11.976Z,10.47
2018-05-23T19:14:51.735Z,7.53
2018-05-23T19:17:20.528Z,7.67
2018-05-23T19:19:49.800Z,6.13
2018-05-23T19:22:23.102Z,5.83
2018-05-23T19:24:53.783Z,7.33
2018-05-23T19:27:22.580Z,5.60
2018-05-23T19:29:52.107Z,5.80
2018-05-23T19:32:23.224Z,7.37
2018-05-23T19:34:52.399Z,6.00
2018-05-23T19:37:21.169Z,5.67
2018-05-23T19:39:54.520Z,5.50
2018-05-23T19:42:23.019Z,5.90
2018-05-23T19:44:52.593Z,7.60
2018-05-23T19:47:22.777Z,10.07
2018-05-23T19:49:51.301Z,10.00
2018-05-23T19:54:56.766Z,10.90
2018-05-23T19:57:25.614Z,10.80
2018-05-23T19:59:54.923Z,11.13
2018-05-23T20:02:24.152Z,10.57
2018-05-23T20:04:54.029Z,8.93
2018-05-23T20:07:22.675Z,9.80
2018-05-23T20:09:53.799Z,9.93
2018-05-23T20:12:22.611Z,9.50
2018-05-23T20:14:51.873Z,10.23
2018-05-23T20:17:20.504Z,9.93
2018-05-23T20:19:50.367Z,8.00
2018-05-23T20:22:20.574Z,8.10
2018-05-23T20:24:50.336Z,8.40
2018-05-23T20:27:20.760Z,8.13
2018-05-23T20:29:51.108Z,7.30
2018-05-23T20:32:19.773Z,7.20
2018-05-23T20:34:48.923Z,7.60
2018-05-23T20:37:24.641Z,7.17
2018-05-23T20:40:05.286Z,8.00
2018-05-23T20:42:34.683Z,9.37
2018-05-23T20:45:03.454Z,9.47
2018-05-23T20:47:32.033Z,9.80
2018-05-23T20:50:04.273Z,10.00
2018-05-23T20:52:36.078Z,9.40
2018-05-23T20:55:04.679Z,8.97
2018-05-23T20:57:36.892Z,11.23
2018-05-23T21:00:06.732Z,10.33
2018-05-23T21:02:35.455Z,10.80
2018-05-23T21:05:05.166Z,10.87
2018-05-23T21:07:34.034Z,12.17
2018-05-23T21:10:05.587Z,12.20
2018-05-23T21:12:34.242Z,10.30
2018-05-23T21:15:03.537Z,10.80
2018-05-23T21:17:32.090Z,11.97
2018-05-23T21:20:05.179Z,11.33
2018-05-23T21:22:36.485Z,11.93
2018-05-23T21:25:05.478Z,10.93
2018-05-23T21:27:34.696Z,11.97
2018-05-23T21:30:05.016Z,11.80
2018-05-23T21:32:33.981Z,10.83
2018-05-23T21:35:03.003Z,12.30
2018-05-23T21:37:31.558Z,11.90
2018-05-23T21:40:02.991Z,10.90
2018-05-23T21:42:31.567Z,13.63
2018-05-23T21:45:00.167Z,12.87
2018-05-23T21:47:29.092Z,13.50
2018-05-23T21:49:57.668Z,13.70
2018-05-23T21:52:28.112Z,13.20
2018-05-23T21:54:57.017Z,14.17
2018-05-23T21:57:28.235Z,14.40
2018-05-23T21:59:57.123Z,15.40
2018-05-23T22:02:29.812Z,13.83
2018-05-23T22:05:01.464Z,14.30
2018-05-23T22:07:31.905Z,16.33
2018-05-23T22:10:06.816Z,14.17
2018-05-23T22:12:35.699Z,12.03
2018-05-23T22:18:00.204Z,13.37
2018-05-23T22:20:29.068Z,12.90
2018-05-23T22:23:00.730Z,12.90
2018-05-23T22:25:31.382Z,13.33
2018-05-23T22:28:04.134Z,13.13
2018-05-23T22:30:32.895Z,13.50
2018-05-23T22:33:02.370Z,12.60
2018-05-23T22:35:38.074Z,11.50
2018-05-23T22:38:11.340Z,11.50
2018-05-23T22:40:54.330Z,11.40
2018-05-23T22:43:30.762Z,11.93
2018-05-23T22:46:09.962Z,12.43
2018-05-23T22:48:38.983Z,11.00
2018-05-23T22:51:07.587Z,11.07
2018-05-23T22:53:40.055Z,10.60
2018-05-23T22:56:09.135Z,11.57
2018-05-23T22:58:39.039Z,11.43
2018-05-23T23:01:07.549Z,10.90
2018-05-23T23:03:36.147Z,11.43
2018-05-23T23:06:06.390Z,11.50
2018-05-23T23:08:35.523Z,12.37
2018-05-23T23:11:04.200Z,11.53
2018-05-23T23:13:32.782Z,13.80
2018-05-23T23:16:04.626Z,11.40
2018-05-23T23:18:33.268Z,10.50
2018-05-23T23:21:06.539Z,10.83
2018-05-23T23:23:35.153Z,12.00
2018-05-23T23:26:04.707Z,13.50
2018-05-23T23:28:34.773Z,12.30
2018-05-23T23:31:03.867Z,11.80
2018-05-23T23:33:32.502Z,13.00
2018-05-23T23:36:02.670Z,12.90
2018-05-23T23:38:31.385Z,13.70
2018-05-23T23:40:59.924Z,10.87
2018-05-23T23:43:30.955Z,12.07
2018-05-23T23:45:59.473Z,11.73
2018-05-23T23:48:28.059Z,11.63
2018-05-23T23:51:02.559Z,11.47
2018-05-23T23:53:31.079Z,12.07
2018-05-23T23:56:01.647Z,12.40
2018-05-23T23:58:30.170Z,12.87
